Time;durP1;ratioP1;P1;durP2;ratioP2;P2;SDS_P1;SDS_P2;PMS_P1;PMS_P2;Temp;Humidity;BMP_temperature;BMP_pressure;BME280_temperature;BME280_humidity;BME280_pressure;Samples;Min_cycle;Max_cycle;Signal;HPM_P1;HPM_P2
2023/10/07 00:02:51;;;;;;;1999.90;999.90;;;;;;;11.80;100.00;95759.22;5067391;28;20154;-60
2023/10/07 00:05:20;;;;;;;1999.90;999.90;;;;;;;11.77;100.00;95754.56;5066078;28;20227;-61
2023/10/07 00:07:45;;;;;;;1999.90;999.90;;;;;;;11.75;100.00;95748.69;5066791;28;20165;-60
2023/10/07 00:10:15;;;;;;;1999.90;999.90;;;;;;;11.69;100.00;95750.31;5066708;28;20197;-61
2023/10/07 00:12:40;;;;;;;1999.90;999.90;;;;;;;11.66;100.00;95742.91;5065880;28;20174;-61
2023/10/07 00:15:11;;;;;;;1999.90;999.90;;;;;;;11.63;100.00;95751.91;5066099;28;20170;-61
2023/10/07 00:17:43;;;;;;;1999.90;999.90;;;;;;;11.62;100.00;95742.16;5066020;28;20162;-61
2023/10/07 00:20:12;;;;;;;1999.90;999.90;;;;;;;11.64;100.00;95737.03;5066549;28;20173;-61
2023/10/07 00:22:41;;;;;;;1999.90;999.90;;;;;;;11.60;100.00;95739.00;5066399;28;20173;-60
2023/10/07 00:25:07;;;;;;;1999.90;999.90;;;;;;;11.59;100.00;95742.91;5066434;28;20216;-61
2023/10/07 00:27:38;;;;;;;1999.90;999.90;;;;;;;11.54;100.00;95740.63;5066375;28;20256;-59
2023/10/07 00:30:13;;;;;;;1999.90;999.90;;;;;;;11.50;100.00;95735.16;5065794;28;20239;-60
2023/10/07 00:32:39;;;;;;;1999.90;999.90;;;;;;;11.46;100.00;95733.59;5066238;28;20182;-60
2023/10/07 00:35:06;;;;;;;1999.90;999.90;;;;;;;11.46;100.00;95728.13;5065726;28;20170;-60
2023/10/07 00:37:35;;;;;;;1999.90;999.90;;;;;;;11.42;100.00;95735.59;5066198;28;20169;-60
2023/10/07 00:40:31;;;;;;;1999.90;999.90;;;;;;;11.38;100.00;95732.88;5066177;28;20190;-60
2023/10/07 00:42:57;;;;;;;1999.90;999.90;;;;;;;11.38;100.00;95721.16;5066087;28;20231;-60
2023/10/07 00:45:24;;;;;;;1999.90;999.90;;;;;;;11.40;100.00;95727.03;5065299;28;20237;-60
2023/10/07 00:47:52;;;;;;;1999.90;999.90;;;;;;;11.38;100.00;95721.16;5066020;28;20169;-60
2023/10/07 00:50:20;;;;;;;1999.90;999.90;;;;;;;11.36;100.00;95729.75;5065915;28;20189;-62
2023/10/07 00:55:25;;;;;;;1999.90;999.90;;;;;;;11.34;100.00;95734.06;5066656;28;20145;-60
2023/10/07 01:00:42;;;;;;;1999.90;999.90;;;;;;;11.27;100.00;95736.84;5066327;28;20187;-60
2023/10/07 01:03:18;;;;;;;1999.90;999.90;;;;;;;11.23;100.00;95730.63;5064873;28;20162;-60
2023/10/07 01:05:55;;;;;;;1999.90;999.90;;;;;;;11.22;100.00;95724.38;5065544;28;20225;-60
2023/10/07 01:08:34;;;;;;;1999.90;999.90;;;;;;;11.20;100.00;95721.28;5065161;28;20230;-60
2023/10/07 01:13:50;;;;;;;1999.90;999.90;;;;;;;11.05;100.00;95729.94;5065867;28;20149;-59
2023/10/07 01:16:26;;;;;;;1999.90;999.90;;;;;;;10.97;100.00;95723.72;5065468;28;20162;-59
2023/10/07 01:19:04;;;;;;;1999.90;999.90;;;;;;;10.89;100.00;95721.44;5065047;28;20244;-60
2023/10/07 01:21:33;;;;;;;1999.90;999.90;;;;;;;10.80;100.00;95719.09;5064759;28;20207;-60
2023/10/07 01:23:59;;;;;;;1999.90;999.90;;;;;;;10.73;100.00;95713.66;5064486;28;20173;-61
2023/10/07 01:26:30;;;;;;;1999.90;999.90;;;;;;;10.66;100.00;95710.19;5065438;28;20207;-61
2023/10/07 01:29:12;;;;;;;1999.90;999.90;;;;;;;10.59;100.00;95697.34;5065186;28;20165;-61
2023/10/07 01:31:59;;;;;;;1999.90;999.90;;;;;;;10.56;100.00;95694.63;5065154;28;20211;-60
2023/10/07 01:34:25;;;;;;;1999.90;999.90;;;;;;;10.51;100.00;95684.09;5065121;28;20199;-61
2023/10/07 01:36:51;;;;;;;1999.90;999.90;;;;;;;10.49;100.00;95681.00;5064557;28;20221;-61
2023/10/07 01:39:17;;;;;;;1999.90;999.90;;;;;;;10.44;100.00;95678.66;5064688;28;20184;-62
2023/10/07 01:41:43;;;;;;;1999.90;999.90;;;;;;;10.38;100.00;95663.88;5064937;28;20168;-61
2023/10/07 01:44:11;;;;;;;1999.90;999.90;;;;;;;10.32;100.00;95649.06;5064894;28;20175;-59
2023/10/07 01:46:39;;;;;;;1999.90;999.90;;;;;;;10.27;100.00;95644.00;5064258;28;20169;-60
2023/10/07 01:49:07;;;;;;;1999.90;999.90;;;;;;;10.25;100.00;95638.16;5064333;28;20192;-60
2023/10/07 01:51:32;;;;;;;1999.90;999.90;;;;;;;10.23;100.00;95635.06;5064978;28;20175;-59
2023/10/07 01:54:03;;;;;;;1999.90;999.90;;;;;;;10.17;100.00;95620.25;5064751;28;20251;-60
2023/10/07 01:56:29;;;;;;;1999.90;999.90;;;;;;;10.11;100.00;95611.69;5063999;28;20158;-59
2023/10/07 01:59:04;;;;;;;1999.90;999.90;;;;;;;10.05;100.00;95603.13;5064728;28;20506;-59
2023/10/07 02:01:29;;;;;;;1999.90;999.90;;;;;;;10.03;100.00;95599.97;5064681;28;20227;-59
2023/10/07 02:03:59;;;;;;;1999.90;999.90;;;;;;;9.99;100.00;95598.47;5064626;28;20171;-59
2023/10/07 02:06:26;;;;;;;1999.90;999.90;;;;;;;9.96;100.00;95588.34;5063973;28;20208;-59
2023/10/07 02:08:52;;;;;;;1999.90;999.90;;;;;;;9.95;100.00;95573.91;5064560;28;20164;-59
2023/10/07 02:11:25;;;;;;;1999.90;999.90;;;;;;;9.95;100.00;95573.16;5064007;28;20196;-59
2023/10/07 02:13:51;;;;;;;1999.90;999.90;;;;;;;9.89;100.00;95564.59;5064519;28;20490;-59
2023/10/07 02:16:19;;;;;;;1999.90;999.90;;;;;;;9.87;100.00;95558.72;5064332;28;20162;-59
2023/10/07 02:18:44;;;;;;;1999.90;999.90;;;;;;;9.84;100.00;95558.75;5064586;28;20243;-59
2023/10/07 02:21:10;;;;;;;1999.90;999.90;;;;;;;9.82;100.00;95545.50;5063852;28;20178;-59
2023/10/07 02:23:37;;;;;;;1999.90;999.90;;;;;;;9.77;100.00;95537.72;5064405;28;20199;-59
2023/10/07 02:26:23;;;;;;;1999.90;999.90;;;;;;;9.73;100.00;95531.50;5063806;28;20174;-59
2023/10/07 02:28:52;;;;;;;1999.90;999.90;;;;;;;9.67;100.00;95524.91;5064348;28;20160;-59
2023/10/07 02:31:23;;;;;;;1999.90;999.90;;;;;;;9.62;100.00;95511.66;5063709;28;20176;-59
2023/10/07 02:33:53;;;;;;;1999.90;999.90;;;;;;;9.58;100.00;95501.97;5064483;28;20173;-59
2023/10/07 02:36:28;;;;;;;1999.90;999.90;;;;;;;9.54;100.00;95501.94;5063287;28;20179;-63
2023/10/07 02:39:01;;;;;;;1999.90;999.90;;;;;;;9.53;100.00;95494.16;5064299;28;20160;-59
2023/10/07 02:41:26;;;;;;;1999.90;999.90;;;;;;;9.49;100.00;95488.75;5064122;28;20158;-59
2023/10/07 02:43:52;;;;;;;1999.90;999.90;;;;;;;9.47;100.00;95482.13;5063477;28;20170;-59
2023/10/07 02:46:34;;;;;;;1999.90;999.90;;;;;;;9.45;100.00;95481.72;5063519;28;20208;-59
2023/10/07 02:49:09;;;;;;;1999.90;999.90;;;;;;;9.45;100.00;95470.84;5063973;28;20157;-59
2023/10/07 02:51:55;;;;;;;1999.90;999.90;;;;;;;9.45;100.00;95468.09;5064018;28;20169;-60
2023/10/07 02:54:21;;;;;;;1999.90;999.90;;;;;;;9.41;100.00;95470.84;5063489;28;20170;-60
2023/10/07 02:57:03;;;;;;;1999.90;999.90;;;;;;;9.40;100.00;95463.81;5063956;28;20168;-59
2023/10/07 02:59:31;;;;;;;1999.90;999.90;;;;;;;9.39;100.00;95462.28;5063339;28;20174;-59
2023/10/07 03:04:42;;;;;;;1999.90;999.90;;;;;;;9.37;100.00;95458.41;5064433;28;20169;-60
2023/10/07 03:07:15;;;;;;;1999.90;999.90;;;;;;;9.34;100.00;95465.41;5063878;28;20206;-59
2023/10/07 03:09:52;;;;;;;1999.90;999.90;;;;;;;9.29;100.00;95459.59;5063849;28;20196;-59
2023/10/07 03:12:27;;;;;;;1999.90;999.90;;;;;;;9.23;100.00;95469.31;5064108;28;20234;-60
2023/10/07 03:14:59;;;;;;;1999.90;999.90;;;;;;;9.19;100.00;95472.06;5063845;28;20154;-60
2023/10/07 03:17:39;;;;;;;1999.90;999.90;;;;;;;9.13;100.00;95473.63;5063797;28;20159;-60
2023/10/07 03:26:05;;;;;;;1999.90;999.90;;;;;;;9.06;100.00;95465.47;5064222;28;20204;-60
2023/10/07 03:28:23;;;;;;;1999.90;999.90;;;;;;;8.99;100.00;95465.47;5063850;28;20201;-60
2023/10/07 03:30:57;;;;;;;1999.90;999.90;;;;;;;8.95;100.00;95475.59;5063520;28;20211;-60
2023/10/07 03:33:42;;;;;;;1999.90;999.90;;;;;;;8.94;100.00;95479.50;5066479;28;20169;-59
2023/10/07 03:36:09;;;;;;;1999.90;999.90;;;;;;;8.90;100.00;95473.28;5067306;28;20170;-59
2023/10/07 03:38:35;;;;;;;1999.90;999.90;;;;;;;8.87;100.00;95495.03;5066753;28;20183;-60
2023/10/07 03:41:05;;;;;;;1999.90;999.90;;;;;;;8.86;100.00;95486.09;5066731;28;20272;-60
2023/10/07 03:43:34;;;;;;;1999.90;999.90;;;;;;;8.84;100.00;95485.72;5067396;28;20236;-61
2023/10/07 03:46:00;;;;;;;1999.90;999.90;;;;;;;8.82;100.00;95488.03;5066570;28;20258;-60
2023/10/07 03:48:30;;;;;;;1999.90;999.90;;;;;;;8.81;100.00;95486.47;5066806;28;20211;-60
2023/10/07 03:51:07;;;;;;;1999.90;999.90;;;;;;;8.81;100.00;95480.25;5067277;28;20202;-60
2023/10/07 03:53:44;;;;;;;1999.90;999.90;;;;;;;8.82;100.00;95463.53;5067253;28;20166;-60
2023/10/07 03:56:14;;;;;;;1999.90;999.90;;;;;;;8.78;100.00;95481.06;5066724;28;20319;-60
2023/10/07 03:58:44;;;;;;;1999.90;999.90;;;;;;;8.72;100.00;95477.94;5066449;28;20191;-60
2023/10/07 04:01:22;;;;;;;1999.90;999.90;;;;;;;8.63;100.00;95480.25;5066262;28;20174;-59
2023/10/07 04:03:52;;;;;;;1999.90;999.90;;;;;;;8.57;100.00;95487.28;5066834;28;20173;-60
2023/10/07 04:06:19;;;;;;;1999.90;999.90;;;;;;;8.53;100.00;95493.88;5066001;28;20532;-60
2023/10/07 04:08:56;;;;;;;1999.90;999.90;;;;;;;8.48;100.00;95494.22;5066437;28;20170;-59
2023/10/07 04:11:28;;;;;;;1999.90;999.90;;;;;;;8.49;100.00;95493.84;5066600;28;20171;-60
2023/10/07 04:13:58;;;;;;;1999.90;999.90;;;;;;;8.50;100.00;95492.69;5066814;28;20166;-60
2023/10/07 04:16:24;;;;;;;1999.90;999.90;;;;;;;8.51;100.00;95494.25;5066090;28;20260;-60
2023/10/07 04:19:06;;;;;;;1999.90;999.90;;;;;;;8.45;100.00;95490.34;5066548;28;20242;-59
2023/10/07 04:21:41;;;;;;;1999.90;999.90;;;;;;;8.42;100.00;95501.22;5065606;28;20233;-60
2023/10/07 04:24:11;;;;;;;1999.90;999.90;;;;;;;8.38;100.00;95501.22;5066481;28;20188;-59
2023/10/07 04:26:51;;;;;;;1999.90;999.90;;;;;;;8.32;100.00;95502.78;5066334;28;20197;-60
2023/10/07 04:29:17;;;;;;;1999.90;999.90;;;;;;;8.32;100.00;95505.50;5066340;28;20169;-59
2023/10/07 04:31:52;;;;;;;1999.90;999.90;;;;;;;8.36;100.00;95503.56;5066300;28;20171;-59
2023/10/07 04:34:18;;;;;;;1999.90;999.90;;;;;;;8.28;100.00;95496.56;5066305;28;20173;-59
2023/10/07 04:39:31;;;;;;;1999.90;999.90;;;;;;;8.25;100.00;95501.97;5066957;28;20161;-60
2023/10/07 04:42:03;;;;;;;1999.90;999.90;;;;;;;8.26;100.00;95504.31;5065542;28;20217;-60
2023/10/07 04:50:04;;;;;;;1999.90;999.90;;;;;;;8.23;100.00;95515.94;5066504;28;20193;-59
2023/10/07 04:52:31;;;;;;;1999.90;999.90;;;;;;;8.24;100.00;95514.03;5065879;28;20192;-59
2023/10/07 04:54:58;;;;;;;1999.90;999.90;;;;;;;8.19;100.00;95520.56;5065816;28;20212;-59
2023/10/07 05:00:36;;;;;;;1999.90;999.90;;;;;;;8.17;100.00;95517.47;5066253;28;20204;-60
2023/10/07 05:03:16;;;;;;;1999.90;999.90;;;;;;;8.14;100.00;95529.13;5065751;28;20256;-59
2023/10/07 05:05:44;;;;;;;1999.90;999.90;;;;;;;8.12;100.00;95528.72;5065151;28;20232;-59
2023/10/07 05:08:11;;;;;;;1999.90;999.90;;;;;;;8.09;100.00;95529.47;5065091;28;20186;-59
2023/10/07 05:10:41;;;;;;;1999.90;999.90;;;;;;;8.06;100.00;95532.19;5064976;28;20206;-60
2023/10/07 05:13:07;;;;;;;1999.90;999.90;;;;;;;8.01;100.00;95533.34;5065006;28;20459;-60
2023/10/07 05:15:36;;;;;;;1999.90;999.90;;;;;;;7.99;100.00;95532.94;5065196;28;20166;-60
2023/10/07 05:18:02;;;;;;;1999.90;999.90;;;;;;;8.00;100.00;95529.06;5064953;28;20179;-60
2023/10/07 05:20:31;;;;;;;1999.90;999.90;;;;;;;7.95;100.00;95521.28;5064837;28;20237;-60
2023/10/07 05:23:00;;;;;;;1999.90;999.90;;;;;;;8.00;100.00;95539.94;5064781;28;20176;-60
2023/10/07 05:25:26;;;;;;;1999.90;999.90;;;;;;;7.99;100.00;95526.72;5064579;28;20170;-60
2023/10/07 05:27:51;;;;;;;1999.90;999.90;;;;;;;8.02;100.00;95537.63;5064760;28;20166;-62
2023/10/07 05:30:21;;;;;;;1999.90;999.90;;;;;;;8.02;100.00;95543.06;5065021;28;20193;-60
2023/10/07 05:32:47;;;;;;;1999.90;999.90;;;;;;;8.05;100.00;95542.28;5064584;28;20178;-60
2023/10/07 05:35:18;;;;;;;1999.90;999.90;;;;;;;8.08;100.00;95552.41;5065244;28;20224;-60
2023/10/07 05:37:45;;;;;;;1999.90;999.90;;;;;;;8.17;100.00;95549.31;5065128;28;20253;-60
2023/10/07 05:40:14;;;;;;;1999.90;999.90;;;;;;;8.33;100.00;95547.84;5064858;28;20170;-60
2023/10/07 05:42:40;;;;;;;1999.90;999.90;;;;;;;8.57;100.00;95554.53;5064881;28;20181;-60
2023/10/07 05:45:09;;;;;;;1999.90;999.90;;;;;;;8.70;100.00;95561.94;5064844;28;20194;-59
2023/10/07 05:47:35;;;;;;;1999.90;999.90;;;;;;;8.86;100.00;95589.56;5064951;28;20196;-60
2023/10/07 05:50:01;;;;;;;1999.90;999.90;;;;;;;8.98;100.00;95624.59;5064672;28;20223;-60
2023/10/07 05:52:31;;;;;;;1999.90;999.90;;;;;;;9.06;100.00;95661.59;5064742;28;20180;-60
2023/10/07 05:54:56;;;;;;;1999.90;999.90;;;;;;;9.05;100.00;95684.53;5064875;28;20180;-60
2023/10/07 05:57:25;;;;;;;1999.90;999.90;;;;;;;9.13;100.00;95707.91;5064818;28;20198;-62
2023/10/07 05:59:54;;;;;;;1999.90;999.90;;;;;;;9.48;100.00;95718.84;5064096;28;20185;-60
2023/10/07 06:02:20;;;;;;;1999.90;999.90;;;;;;;10.17;100.00;95732.94;5064590;28;20188;-60
2023/10/07 06:04:45;;;;;;;1999.90;999.90;;;;;;;10.92;100.00;95769.81;5064427;28;20178;-60
2023/10/07 06:07:14;;;;;;;1999.90;999.90;;;;;;;11.78;100.00;95849.91;5064132;28;20238;-59
2023/10/07 06:09:43;;;;;;;1999.90;999.90;;;;;;;12.43;100.00;95942.97;5063824;28;20204;-60
2023/10/07 06:12:09;;;;;;;1999.90;999.90;;;;;;;13.06;100.00;96032.25;5063988;28;20256;-60
2023/10/07 06:14:35;;;;;;;1999.90;999.90;;;;;;;13.29;100.00;96101.03;5063829;28;20174;-61
2023/10/07 06:17:00;;;;;;;1999.90;999.90;;;;;;;13.47;100.00;96134.59;5063938;28;20169;-59
2023/10/07 06:19:25;;;;;;;1999.90;999.90;;;;;;;14.26;100.00;96170.03;5064251;28;20402;-59
2023/10/07 06:21:51;;;;;;;1999.90;999.90;;;;;;;15.09;100.00;96177.72;5063798;28;20173;-59
2023/10/07 06:24:23;;;;;;;1999.90;999.90;;;;;;;16.06;100.00;96175.50;5063817;28;20170;-60
2023/10/07 06:26:49;;;;;;;1999.90;999.90;;;;;;;16.97;100.00;96183.31;5063944;28;20170;-61
2023/10/07 06:29:19;;;;;;;1999.90;999.90;;;;;;;17.73;100.00;96182.84;5063726;28;20188;-61
2023/10/07 06:31:55;;;;;;;1999.90;999.90;;;;;;;18.21;100.00;96189.19;5063525;28;20178;-61
2023/10/07 06:34:25;;;;;;;1999.90;999.90;;;;;;;18.66;100.00;96189.25;5064241;28;20241;-60
2023/10/07 06:36:52;;;;;;;1999.90;999.90;;;;;;;19.16;100.00;96187.44;5063628;28;20171;-60
2023/10/07 06:39:27;;;;;;;1999.90;999.90;;;;;;;19.24;100.00;96190.78;5063520;28;20173;-61
2023/10/07 06:41:55;;;;;;;1999.90;999.90;;;;;;;19.85;100.00;96194.09;5063809;28;20177;-60
2023/10/07 06:44:23;;;;;;;1999.90;999.90;;;;;;;19.97;100.00;96193.34;5063380;28;20184;-61
2023/10/07 06:46:54;;;;;;;1999.90;999.90;;;;;;;20.51;100.00;96184.84;5064052;28;20170;-61
2023/10/07 06:49:20;;;;;;;1999.90;999.90;;;;;;;20.45;100.00;96176.31;5063850;28;20166;-61
2023/10/07 06:51:50;;;;;;;1999.90;999.90;;;;;;;20.39;100.00;96183.63;5063933;28;20174;-61
2023/10/07 06:54:16;;;;;;;1999.90;999.90;;;;;;;20.45;100.00;96181.88;5064156;28;20193;-61
2023/10/07 06:56:41;;;;;;;1999.90;999.90;;;;;;;20.48;100.00;96186.53;5063390;28;20169;-61
2023/10/07 06:59:07;;;;;;;1999.90;999.90;;;;;;;20.84;100.00;96186.06;5063461;28;20169;-60
2023/10/07 07:04:14;;;;;;;1999.90;999.90;;;;;;;21.14;100.00;96175.06;5064421;28;20162;-60
2023/10/07 07:06:43;;;;;;;1999.90;999.90;;;;;;;21.35;100.00;96182.59;5064005;28;20251;-60
2023/10/07 07:09:41;;;;;;;1999.90;999.90;;;;;;;21.80;100.00;96179.34;5067276;28;20170;-60
2023/10/07 07:11:58;;;;;;;1999.90;999.90;;;;;;;22.74;100.00;96177.44;5068001;28;20177;-61
2023/10/07 07:14:28;;;;;;;1999.90;999.90;;;;;;;23.48;100.00;96188.09;5067180;28;20177;-61
2023/10/07 07:16:56;;;;;;;1999.90;999.90;;;;;;;24.09;100.00;96187.63;5067244;28;20232;-63
2023/10/07 07:19:23;;;;;;;1999.90;999.90;;;;;;;24.42;100.00;96188.41;5067166;28;20166;-60
2023/10/07 07:21:49;;;;;;;1999.90;999.90;;;;;;;25.26;98.72;96190.47;5067858;28;20170;-60
2023/10/07 07:24:15;;;;;;;1999.90;999.90;;;;;;;25.91;91.60;96182.97;5067581;28;20176;-60
2023/10/07 07:26:50;;;;;;;1999.90;999.90;;;;;;;26.69;81.68;96188.56;5066917;28;20212;-59
2023/10/07 07:29:17;;;;;;;1999.90;999.90;;;;;;;27.34;74.01;96190.66;5067542;28;20166;-58
2023/10/07 07:31:44;;;;;;;1999.90;999.90;;;;;;;27.25;73.92;96188.00;5067328;28;20202;-61
2023/10/07 07:34:24;;;;;;;1999.90;999.90;;;;;;;27.82;69.01;96189.63;5066835;28;20176;-61
2023/10/07 07:36:59;;;;;;;1999.90;999.90;;;;;;;27.84;67.27;96194.75;5067357;28;20200;-61
2023/10/07 07:39:29;;;;;;;1999.90;999.90;;;;;;;28.08;64.64;96195.25;5067139;28;20231;-60
2023/10/07 07:41:55;;;;;;;1999.90;999.90;;;;;;;28.73;60.61;96204.66;5067107;28;20166;-58
2023/10/07 07:44:32;;;;;;;1999.90;999.90;;;;;;;28.55;60.44;96196.63;5066748;28;20300;-57
2023/10/07 07:46:58;;;;;;;1999.90;999.90;;;;;;;29.20;58.67;96195.47;5067051;28;20180;-56
2023/10/07 07:49:28;;;;;;;1999.90;999.90;;;;;;;29.29;56.32;96192.41;5066992;28;20190;-70
2023/10/07 07:51:53;;;;;;;1999.90;999.90;;;;;;;28.91;57.24;96190.94;5067199;28;20173;-63
2023/10/07 07:54:19;;;;;;;1999.90;999.90;;;;;;;29.02;56.30;96184.63;5066253;28;20162;-64
2023/10/07 07:56:46;;;;;;;1999.90;999.90;;;;;;;28.72;56.90;96189.81;5066785;28;20173;-62
2023/10/07 07:59:14;;;;;;;1999.90;999.90;;;;;;;28.73;56.49;96193.41;5066622;28;20166;-64
2023/10/07 08:01:44;;;;;;;1999.90;999.90;;;;;;;28.20;57.36;96189.22;5066739;28;20166;-64
2023/10/07 08:04:37;;;;;;;1999.90;999.90;;;;;;;27.89;60.73;96196.84;5066378;28;20240;-64
2023/10/07 08:07:10;;;;;;;1999.90;999.90;;;;;;;27.42;60.97;96209.38;5065915;28;20218;-64
2023/10/07 08:09:37;;;;;;;1999.90;999.90;;;;;;;27.41;65.94;96209.88;5066487;28;20198;-65
2023/10/07 08:12:09;;;;;;;1999.90;999.90;;;;;;;27.90;62.68;96213.19;5066884;28;20201;-64
2023/10/07 08:14:35;;;;;;;1999.90;999.90;;;;;;;27.66;62.65;96212.69;5066446;28;20169;-62
2023/10/07 08:17:00;;;;;;;1999.90;999.90;;;;;;;27.47;64.20;96219.91;5066446;28;20241;-62
2023/10/07 08:19:26;;;;;;;1999.90;999.90;;;;;;;27.40;63.14;96216.75;5064859;28;20170;-64
2023/10/07 08:21:52;;;;;;;1999.90;999.90;;;;;;;27.00;65.11;96233.56;5065963;28;20176;-59
2023/10/07 08:24:21;;;;;;;1999.90;999.90;;;;;;;27.23;66.52;96224.97;5065944;28;20166;-63
2023/10/07 08:26:59;;;;;;;1999.90;999.90;;;;;;;27.39;63.70;96227.19;5065764;28;20265;-63
2023/10/07 08:29:32;;;;;;;1999.90;999.90;;;;;;;27.45;64.13;96224.44;5065725;28;20185;-63
2023/10/07 08:35:03;;;;;;;1999.90;999.90;;;;;;;27.44;61.18;96218.09;5044038;28;20207;-58
2023/10/07 08:37:32;;;;;;;1999.90;999.90;;;;;;;27.81;58.02;96218.19;5065553;28;20165;-58
2023/10/07 08:40:14;;;;;;;1999.90;999.90;;;;;;;27.74;59.65;96211.00;5065634;28;20241;-59
2023/10/07 08:42:45;;;;;;;1999.90;999.90;;;;;;;28.33;59.36;96214.06;5066192;28;20162;-58
2023/10/07 08:45:14;;;;;;;1999.90;999.90;;;;;;;28.75;56.63;96208.50;5066008;28;20170;-57
2023/10/07 08:47:49;;;;;;;1999.90;999.90;;;;;;;28.43;55.03;96207.00;5065384;28;20169;-55
2023/10/07 08:50:22;;;;;;;1999.90;999.90;;;;;;;28.74;53.66;96206.19;5065940;28;20201;-57
2023/10/07 08:52:52;;;;;;;1999.90;999.90;;;;;;;28.59;55.21;96211.22;5065403;28;20166;-56
2023/10/07 08:55:19;;;;;;;1999.90;999.90;;;;;;;29.13;53.58;96207.19;5065332;28;20177;-57
2023/10/07 08:57:47;;;;;;;1999.90;999.90;;;;;;;29.21;51.17;96213.88;5065170;28;20182;-57
2023/10/07 09:00:20;;;;;;;1999.90;999.90;;;;;;;28.74;51.71;96204.16;5065157;28;20178;-56
2023/10/07 09:02:47;;;;;;;1999.90;999.90;;;;;;;28.46;54.88;96194.00;5065735;28;20223;-56
2023/10/07 09:05:19;;;;;;;1999.90;999.90;;;;;;;28.70;56.38;96198.00;5065042;28;20218;-57
2023/10/07 09:07:49;;;;;;;1999.90;999.90;;;;;;;29.47;54.60;96203.22;5065584;28;20166;-57
2023/10/07 09:10:16;;;;;;;1999.90;999.90;;;;;;;30.05;52.58;96205.13;5064976;28;20198;-57
2023/10/07 09:12:46;;;;;;;1999.90;999.90;;;;;;;29.61;54.09;96205.06;5064793;28;20169;-63
2023/10/07 09:15:34;;;;;;;1999.90;999.90;;;;;;;29.04;55.34;96207.41;5064615;28;20170;-62
2023/10/07 09:18:03;;;;;;;1999.90;999.90;;;;;;;28.59;51.10;96209.19;5065222;28;20169;-68
2023/10/07 09:20:32;;;;;;;1999.90;999.90;;;;;;;28.65;50.60;96212.03;5064722;28;20208;-66
2023/10/07 09:23:01;;;;;;;1999.90;999.90;;;;;;;28.69;50.11;96202.06;5065218;28;20177;-65
2023/10/07 09:25:31;;;;;;;1999.90;999.90;;;;;;;28.25;51.20;96202.53;5064669;28;20170;-66
2023/10/07 09:27:59;;;;;;;1999.90;999.90;;;;;;;28.10;51.63;96201.91;5065269;28;20179;-67
2023/10/07 09:31:07;;;;;;;1999.90;999.90;;;;;;;27.87;54.15;96196.59;5064166;28;20201;-68
2023/10/07 09:33:17;;;;;;;1999.90;999.90;;;;;;;27.70;54.25;96196.41;5057613;28;20190;-66
2023/10/07 09:38:41;;;;;;;1999.90;999.90;;;;;;;28.57;53.21;96196.88;5065540;28;20203;-65
2023/10/07 09:41:12;;;;;;;1999.90;999.90;;;;;;;28.18;54.20;96191.75;5064897;28;20174;-65
2023/10/07 09:43:42;;;;;;;1999.90;999.90;;;;;;;28.13;53.74;96191.69;5065081;28;20166;-65
2023/10/07 09:46:07;;;;;;;1999.90;999.90;;;;;;;28.38;52.45;96187.28;5064926;28;20170;-66
2023/10/07 09:48:36;;;;;;;1999.90;999.90;;;;;;;28.13;51.49;96181.22;5064594;28;20215;-65
2023/10/07 09:51:02;;;;;;;1999.90;999.90;;;;;;;28.54;53.40;96183.84;5063902;28;20280;-65
2023/10/07 09:54:10;;;;;;;1999.90;999.90;;;;;;;28.81;51.03;96180.41;5064080;28;20227;-65
2023/10/07 09:57:06;;;;;;;1999.90;999.90;;;;;;;28.62;51.44;96173.66;5064662;28;20173;-55
2023/10/07 09:59:57;;;;;;;1999.90;999.90;;;;;;;29.77;46.97;96176.16;5064792;28;20173;-57
2023/10/07 10:02:42;;;;;;;1999.90;999.90;;;;;;;29.04;46.68;96176.44;5064590;28;20173;-57
2023/10/07 10:05:15;;;;;;;1999.90;999.90;;;;;;;30.09;45.78;96174.63;5064295;28;20237;-56
2023/10/07 10:08:19;;;;;;;1999.90;999.90;;;;;;;30.68;43.13;96163.81;5064555;28;20177;-54
2023/10/07 10:10:49;;;;;;;1999.90;999.90;;;;;;;29.87;43.04;96169.78;5064338;28;20216;-55
2023/10/07 10:13:29;;;;;;;1999.90;999.90;;;;;;;30.16;43.69;96168.53;5064534;28;20170;-53
2023/10/07 10:16:00;;;;;;;1999.90;999.90;;;;;;;29.58;43.58;96158.16;5064192;28;20188;-56
2023/10/07 10:18:40;;;;;;;1999.90;999.90;;;;;;;29.75;42.63;96159.00;5064349;28;20216;-54
2023/10/07 10:21:12;;;;;;;1999.90;999.90;;;;;;;29.54;40.99;96152.03;5064370;28;20223;-53
2023/10/07 10:23:44;;;;;;;1999.90;999.90;;;;;;;30.43;39.23;96153.59;5064557;28;20162;-52
2023/10/07 10:26:14;;;;;;;1999.90;999.90;;;;;;;30.61;38.68;96162.28;5064185;28;20170;-55
2023/10/07 10:28:59;;;;;;;1999.90;999.90;;;;;;;30.38;37.61;96162.84;5063735;28;20170;-52
2023/10/07 10:31:32;;;;;;;1999.90;999.90;;;;;;;30.27;38.60;96163.63;5064282;28;20264;-56
2023/10/07 10:34:04;;;;;;;1999.90;999.90;;;;;;;30.20;39.23;96169.03;5064157;28;20244;-55
2023/10/07 10:36:31;;;;;;;1999.90;999.90;;;;;;;29.08;39.48;96157.25;5064018;28;20195;-56
2023/10/07 10:39:00;;;;;;;1999.90;999.90;;;;;;;29.89;37.45;96149.50;5063620;28;20170;-56
2023/10/07 10:41:27;;;;;;;1999.90;999.90;;;;;;;29.88;38.42;96156.44;5062973;28;20170;-57
2023/10/07 10:44:04;;;;;;;1999.90;999.90;;;;;;;29.29;36.84;96158.63;5064031;28;20169;-55
2023/10/07 10:46:43;;;;;;;1999.90;999.90;;;;;;;29.51;37.18;96158.66;5063537;28;20174;-56
2023/10/07 10:49:09;;;;;;;1999.90;999.90;;;;;;;29.42;37.65;96153.28;5063416;28;20165;-57
2023/10/07 10:51:34;;;;;;;1999.90;999.90;;;;;;;29.73;37.50;96155.91;5063636;28;20228;-57
2023/10/07 10:54:00;;;;;;;1999.90;999.90;;;;;;;29.74;37.06;96154.63;5063404;28;20166;-57
2023/10/07 10:56:26;;;;;;;1999.90;999.90;;;;;;;29.58;37.97;96147.69;5063818;28;20181;-57
2023/10/07 10:58:53;;;;;;;1999.90;999.90;;;;;;;29.48;38.45;96151.22;5063377;28;20189;-56
2023/10/07 11:01:19;;;;;;;1999.90;999.90;;;;;;;28.78;40.60;96147.66;5063475;28;20170;-57
2023/10/07 11:03:48;;;;;;;1999.90;999.90;;;;;;;28.32;41.65;96149.94;5063465;28;20170;-56
2023/10/07 11:06:15;;;;;;;1999.90;999.90;;;;;;;27.76;42.89;96151.53;5063329;28;20221;-56
2023/10/07 11:08:41;;;;;;;1999.90;999.90;;;;;;;27.05;44.65;96129.84;5063390;28;20201;-56
2023/10/07 11:11:10;;;;;;;1999.90;999.90;;;;;;;26.17;45.80;96137.09;5063699;28;20189;-57
2023/10/07 11:13:38;;;;;;;1999.90;999.90;;;;;;;26.03;47.19;96121.09;5063731;28;20177;-56
2023/10/07 11:16:11;;;;;;;1999.90;999.90;;;;;;;25.95;47.41;96128.34;5063440;28;20170;-56
2023/10/07 11:18:38;;;;;;;1999.90;999.90;;;;;;;25.80;49.05;96133.19;5063738;28;20174;-53
2023/10/07 11:21:18;;;;;;;1999.90;999.90;;;;;;;25.85;51.34;96117.75;5063275;28;20178;-54
2023/10/07 11:23:53;;;;;;;1999.90;999.90;;;;;;;26.00;49.86;96122.06;5062870;28;20162;-53
2023/10/07 11:26:24;;;;;;;1999.90;999.90;;;;;;;25.93;49.90;96119.63;5063646;28;20201;-53
2023/10/07 11:28:51;;;;;;;1999.90;999.90;;;;;;;26.09;49.55;96116.34;5063838;28;20178;-54
2023/10/07 11:31:27;;;;;;;1999.90;999.90;;;;;;;26.04;49.80;96114.22;5063051;28;20197;-56
2023/10/07 11:33:52;;;;;;;1999.90;999.90;;;;;;;25.98;49.79;96107.78;5063436;28;20170;-55
2023/10/07 11:36:18;;;;;;;1999.90;999.90;;;;;;;26.03;47.77;96106.34;5063535;28;20173;-56
2023/10/07 11:38:43;;;;;;;1999.90;999.90;;;;;;;25.58;49.67;96104.84;5063053;28;20166;-55
2023/10/07 11:41:10;;;;;;;1999.90;999.90;;;;;;;25.62;48.29;96104.63;5063496;28;20169;-56
2023/10/07 11:43:48;;;;;;;1999.90;999.90;;;;;;;25.36;45.19;96110.06;5062980;28;20177;-54
2023/10/07 11:46:14;;;;;;;1999.90;999.90;;;;;;;25.06;40.00;96108.47;5063397;28;20166;-55